Latheron, United Kingdom
Current Conditions -  °F | °C
As of 8:50 AM on Sunday 26 Oct 2014 (Local Time) from EGPC Reporting Station
Clear Clear  
Wind Chill: 10°   Ceiling: Unl
Heat Index: 10°   Visibility: 6mi
Dew Point:   Wind: 15mph
Humidity: 76%   Direction: 230°SW
Pressure: 29.38"   Gusts: NA
Location:  58.29°N, 3.35°W
Report Text: EGPC 260750Z AUTO 23013KT 9999 NCD 10/06 Q0995
Loading
Personal Weather Stations






























Interactive Weather Map
Tropical Storm Tracking
New forecast layout! Learn more

10-Day Weather Forecast

Advertisements
Track Severe Weather on mobile